sensor_id;sensor_type;location;lat;lon;timestamp;pressure;altitude;pressure_sealevel;temperature;humidity
30021;BME280;16861;52.294;7.760;2023-10-08T00:00:25;100327.63;;;20.52;64.74
30021;BME280;16861;52.294;7.760;2023-10-08T00:03:16;100325.81;;;20.53;64.42
30021;BME280;16861;52.294;7.760;2023-10-08T00:05:47;100322.28;;;20.52;64.83
30021;BME280;16861;52.294;7.760;2023-10-08T00:08:16;100318.78;;;20.52;64.77
30021;BME280;16861;52.294;7.760;2023-10-08T00:10:44;100329.47;;;20.52;64.91
30021;BME280;16861;52.294;7.760;2023-10-08T00:13:11;100335.78;;;20.51;64.79
30021;BME280;16861;52.294;7.760;2023-10-08T00:15:39;100325.06;;;20.51;65.00
30021;BME280;16861;52.294;7.760;2023-10-08T00:18:24;100333.09;;;20.51;64.94
30021;BME280;16861;52.294;7.760;2023-10-08T00:20:50;100343.66;;;20.52;64.83
30021;BME280;16861;52.294;7.760;2023-10-08T00:23:36;100350.84;;;20.52;64.85
30021;BME280;16861;52.294;7.760;2023-10-08T00:26:08;100360.56;;;20.53;64.89
30021;BME280;16861;52.294;7.760;2023-10-08T00:28:35;100358.88;;;20.52;65.24
30021;BME280;16861;52.294;7.760;2023-10-08T00:31:02;100357.16;;;20.51;64.97
30021;BME280;16861;52.294;7.760;2023-10-08T00:33:39;100353.66;;;20.50;65.21
30021;BME280;16861;52.294;7.760;2023-10-08T00:36:06;100353.81;;;20.49;65.29
30021;BME280;16861;52.294;7.760;2023-10-08T00:38:44;100358.28;;;20.48;65.49
30021;BME280;16861;52.294;7.760;2023-10-08T00:41:14;100380.13;;;20.43;65.72
30021;BME280;16861;52.294;7.760;2023-10-08T00:43:41;100417.53;;;20.43;65.56
30021;BME280;16861;52.294;7.760;2023-10-08T00:46:11;100439.34;;;20.39;64.58
30021;BME280;16861;52.294;7.760;2023-10-08T00:49:00;100441.81;;;20.30;62.94
30021;BME280;16861;52.294;7.760;2023-10-08T00:51:46;100433.19;;;20.17;62.38
30021;BME280;16861;52.294;7.760;2023-10-08T00:54:26;100422.25;;;19.99;62.05
30021;BME280;16861;52.294;7.760;2023-10-08T00:57:00;100423.00;;;19.79;62.01
30021;BME280;16861;52.294;7.760;2023-10-08T00:59:32;100438.88;;;19.60;61.81
30021;BME280;16861;52.294;7.760;2023-10-08T01:02:12;100445.16;;;19.37;61.56
30021;BME280;16861;52.294;7.760;2023-10-08T01:04:42;100463.69;;;19.18;61.52
30021;BME280;16861;52.294;7.760;2023-10-08T01:07:12;100446.63;;;18.97;61.83
30021;BME280;16861;52.294;7.760;2023-10-08T01:09:39;100430.28;;;18.79;62.04
30021;BME280;16861;52.294;7.760;2023-10-08T01:14:49;100443.19;;;18.51;62.20
30021;BME280;16861;52.294;7.760;2023-10-08T01:17:21;100455.81;;;18.38;62.60
30021;BME280;16861;52.294;7.760;2023-10-08T01:19:51;100477.13;;;18.26;62.93
30021;BME280;16861;52.294;7.760;2023-10-08T01:22:23;100462.81;;;18.16;63.10
30021;BME280;16861;52.294;7.760;2023-10-08T01:24:51;100458.16;;;18.06;63.11
30021;BME280;16861;52.294;7.760;2023-10-08T01:27:18;100468.56;;;17.98;62.91
30021;BME280;16861;52.294;7.760;2023-10-08T01:29:51;100468.44;;;17.88;62.73
30021;BME280;16861;52.294;7.760;2023-10-08T01:32:19;100469.00;;;17.80;63.02
30021;BME280;16861;52.294;7.760;2023-10-08T01:34:47;100462.69;;;17.70;63.08
30021;BME280;16861;52.294;7.760;2023-10-08T01:37:15;100455.41;;;17.61;63.04
30021;BME280;16861;52.294;7.760;2023-10-08T01:39:46;100467.47;;;17.53;63.10
30021;BME280;16861;52.294;7.760;2023-10-08T01:42:12;100455.59;;;17.46;63.06
30021;BME280;16861;52.294;7.760;2023-10-08T01:44:48;100458.00;;;17.38;63.37
30021;BME280;16861;52.294;7.760;2023-10-08T01:47:15;100444.16;;;17.32;63.53
30021;BME280;16861;52.294;7.760;2023-10-08T01:49:43;100448.97;;;17.27;63.74
30021;BME280;16861;52.294;7.760;2023-10-08T01:52:11;100460.81;;;17.23;63.70
30021;BME280;16861;52.294;7.760;2023-10-08T01:54:45;100454.00;;;17.19;63.97
30021;BME280;16861;52.294;7.760;2023-10-08T01:57:11;100440.97;;;17.16;63.99
30021;BME280;16861;52.294;7.760;2023-10-08T01:59:38;100465.22;;;17.11;63.77
30021;BME280;16861;52.294;7.760;2023-10-08T02:02:05;100454.09;;;17.06;63.58
30021;BME280;16861;52.294;7.760;2023-10-08T02:04:33;100444.72;;;17.00;63.89
30021;BME280;16861;52.294;7.760;2023-10-08T02:07:04;100464.84;;;16.91;64.03
30021;BME280;16861;52.294;7.760;2023-10-08T02:09:34;100507.72;;;16.87;63.93
30021;BME280;16861;52.294;7.760;2023-10-08T02:12:01;100504.56;;;16.82;64.21
30021;BME280;16861;52.294;7.760;2023-10-08T02:14:27;100496.06;;;16.76;64.46
30021;BME280;16861;52.294;7.760;2023-10-08T02:16:58;100490.09;;;16.73;64.48
30021;BME280;16861;52.294;7.760;2023-10-08T02:19:32;100478.72;;;16.71;64.46
30021;BME280;16861;52.294;7.760;2023-10-08T02:22:01;100434.50;;;16.70;64.40
30021;BME280;16861;52.294;7.760;2023-10-08T02:24:30;100459.47;;;16.67;64.39
30021;BME280;16861;52.294;7.760;2023-10-08T02:26:57;100473.97;;;16.63;64.49
30021;BME280;16861;52.294;7.760;2023-10-08T02:29:26;100498.09;;;16.60;64.86
30021;BME280;16861;52.294;7.760;2023-10-08T02:31:52;100494.69;;;16.58;64.77
30021;BME280;16861;52.294;7.760;2023-10-08T02:34:20;100485.97;;;16.56;64.96
30021;BME280;16861;52.294;7.760;2023-10-08T02:36:47;100497.69;;;16.53;64.98
30021;BME280;16861;52.294;7.760;2023-10-08T02:39:14;100507.44;;;16.52;65.12
30021;BME280;16861;52.294;7.760;2023-10-08T02:41:41;100499.69;;;16.49;65.39
30021;BME280;16861;52.294;7.760;2023-10-08T02:44:16;100516.59;;;16.48;65.68
30021;BME280;16861;52.294;7.760;2023-10-08T02:46:45;100523.59;;;16.49;65.42
30021;BME280;16861;52.294;7.760;2023-10-08T02:49:20;100530.75;;;16.49;65.71
30021;BME280;16861;52.294;7.760;2023-10-08T02:51:48;100524.38;;;16.51;65.27
30021;BME280;16861;52.294;7.760;2023-10-08T02:54:18;100525.31;;;16.50;65.45
30021;BME280;16861;52.294;7.760;2023-10-08T02:56:45;100528.00;;;16.50;65.41
30021;BME280;16861;52.294;7.760;2023-10-08T02:59:13;100526.16;;;16.51;65.63
30021;BME280;16861;52.294;7.760;2023-10-08T03:01:40;100515.53;;;16.51;65.46
30021;BME280;16861;52.294;7.760;2023-10-08T03:04:11;100520.00;;;16.50;65.58
30021;BME280;16861;52.294;7.760;2023-10-08T03:06:48;100532.34;;;16.51;65.28
30021;BME280;16861;52.294;7.760;2023-10-08T03:09:21;100537.75;;;16.50;65.25
30021;BME280;16861;52.294;7.760;2023-10-08T03:11:51;100550.31;;;16.48;65.36
30021;BME280;16861;52.294;7.760;2023-10-08T03:14:19;100538.81;;;16.47;65.53
30021;BME280;16861;52.294;7.760;2023-10-08T03:16:53;100535.53;;;16.44;65.75
30021;BME280;16861;52.294;7.760;2023-10-08T03:19:22;100529.38;;;16.43;65.31
30021;BME280;16861;52.294;7.760;2023-10-08T03:21:50;100544.56;;;16.41;65.46
30021;BME280;16861;52.294;7.760;2023-10-08T03:24:23;100554.44;;;16.39;65.44
30021;BME280;16861;52.294;7.760;2023-10-08T03:27:10;100559.84;;;16.37;65.35
30021;BME280;16861;52.294;7.760;2023-10-08T03:29:47;100553.72;;;16.37;65.16
30021;BME280;16861;52.294;7.760;2023-10-08T03:32:14;100541.34;;;16.36;65.24
30021;BME280;16861;52.294;7.760;2023-10-08T03:34:45;100552.94;;;16.35;65.51
30021;BME280;16861;52.294;7.760;2023-10-08T03:37:18;100548.59;;;16.34;66.03
30021;BME280;16861;52.294;7.760;2023-10-08T03:39:48;100542.31;;;16.35;65.38
30021;BME280;16861;52.294;7.760;2023-10-08T03:42:21;100543.28;;;16.34;65.51
30021;BME280;16861;52.294;7.760;2023-10-08T03:44:52;100551.16;;;16.35;65.48
30021;BME280;16861;52.294;7.760;2023-10-08T03:47:21;100566.34;;;16.33;65.28
30021;BME280;16861;52.294;7.760;2023-10-08T03:49:53;100555.72;;;16.33;65.35
30021;BME280;16861;52.294;7.760;2023-10-08T03:52:20;100554.00;;;16.32;65.45
30021;BME280;16861;52.294;7.760;2023-10-08T03:54:52;100551.34;;;16.32;65.46
30021;BME280;16861;52.294;7.760;2023-10-08T03:57:54;100543.38;;;16.32;65.31
30021;BME280;16861;52.294;7.760;2023-10-08T04:00:24;100542.53;;;16.32;65.25
30021;BME280;16861;52.294;7.760;2023-10-08T04:02:58;100543.50;;;16.31;65.26
30021;BME280;16861;52.294;7.760;2023-10-08T04:05:36;100545.31;;;16.30;65.33
30021;BME280;16861;52.294;7.760;2023-10-08T04:08:26;100553.38;;;16.28;65.27
30021;BME280;16861;52.294;7.760;2023-10-08T04:11:21;100558.69;;;16.28;65.24
30021;BME280;16861;52.294;7.760;2023-10-08T04:14:02;100535.84;;;16.26;65.30
30021;BME280;16861;52.294;7.760;2023-10-08T04:16:29;100533.28;;;16.24;65.40
30021;BME280;16861;52.294;7.760;2023-10-08T04:18:56;100538.72;;;16.23;65.41
30021;BME280;16861;52.294;7.760;2023-10-08T04:21:23;100529.88;;;16.22;65.51
30021;BME280;16861;52.294;7.760;2023-10-08T04:23:56;100551.38;;;16.19;65.73
30021;BME280;16861;52.294;7.760;2023-10-08T04:26:24;100562.63;;;16.23;65.19
30021;BME280;16861;52.294;7.760;2023-10-08T04:28:54;100559.44;;;16.18;65.71
30021;BME280;16861;52.294;7.760;2023-10-08T04:31:26;100555.91;;;16.17;65.83
30021;BME280;16861;52.294;7.760;2023-10-08T04:34:06;100567.41;;;16.18;65.76
30021;BME280;16861;52.294;7.760;2023-10-08T04:36:43;100570.97;;;16.17;65.65
30021;BME280;16861;52.294;7.760;2023-10-08T04:39:14;100573.78;;;16.15;66.10
30021;BME280;16861;52.294;7.760;2023-10-08T04:41:48;100580.78;;;16.16;65.62
30021;BME280;16861;52.294;7.760;2023-10-08T04:44:20;100596.72;;;16.16;65.61
30021;BME280;16861;52.294;7.760;2023-10-08T04:46:48;100618.94;;;16.15;65.77
30021;BME280;16861;52.294;7.760;2023-10-08T04:49:19;100641.88;;;16.16;65.99
30021;BME280;16861;52.294;7.760;2023-10-08T04:52:06;100650.91;;;16.13;66.28
30021;BME280;16861;52.294;7.760;2023-10-08T04:54:43;100651.63;;;16.15;66.04
30021;BME280;16861;52.294;7.760;2023-10-08T04:57:21;100655.88;;;16.18;65.89
30021;BME280;16861;52.294;7.760;2023-10-08T04:59:52;100641.66;;;16.19;65.74
30021;BME280;16861;52.294;7.760;2023-10-08T05:02:20;100636.38;;;16.19;65.88
30021;BME280;16861;52.294;7.760;2023-10-08T05:04:53;100646.03;;;16.20;65.76
30021;BME280;16861;52.294;7.760;2023-10-08T05:07:23;100640.72;;;16.20;65.74
30021;BME280;16861;52.294;7.760;2023-10-08T05:09:53;100646.03;;;16.20;66.16
30021;BME280;16861;52.294;7.760;2023-10-08T05:12:35;100648.69;;;16.20;65.70
30021;BME280;16861;52.294;7.760;2023-10-08T05:15:05;100664.63;;;16.20;65.88
30021;BME280;16861;52.294;7.760;2023-10-08T05:17:41;100676.22;;;16.19;66.01
30021;BME280;16861;52.294;7.760;2023-10-08T05:20:19;100675.25;;;16.20;65.99
30021;BME280;16861;52.294;7.760;2023-10-08T05:23:13;100666.50;;;16.18;66.34
30021;BME280;16861;52.294;7.760;2023-10-08T05:26:06;100655.59;;;16.23;65.72
30021;BME280;16861;52.294;7.760;2023-10-08T05:28:33;100650.28;;;16.23;65.98
30021;BME280;16861;52.294;7.760;2023-10-08T05:31:15;100654.72;;;16.22;65.99
30021;BME280;16861;52.294;7.760;2023-10-08T05:33:43;100668.00;;;16.22;65.74
30021;BME280;16861;52.294;7.760;2023-10-08T05:36:12;100668.97;;;16.21;65.88
30021;BME280;16861;52.294;7.760;2023-10-08T05:38:45;100663.66;;;16.21;66.14
30021;BME280;16861;52.294;7.760;2023-10-08T05:41:16;100671.63;;;16.21;66.07
30021;BME280;16861;52.294;7.760;2023-10-08T05:43:55;100675.97;;;16.22;65.94
30021;BME280;16861;52.294;7.760;2023-10-08T05:46:40;100684.91;;;16.21;66.01
30021;BME280;16861;52.294;7.760;2023-10-08T05:49:18;100689.34;;;16.21;65.89
30021;BME280;16861;52.294;7.760;2023-10-08T05:52:05;100700.13;;;16.19;65.77
30021;BME280;16861;52.294;7.760;2023-10-08T05:54:32;100697.56;;;16.18;65.91
30021;BME280;16861;52.294;7.760;2023-10-08T05:57:08;100713.78;;;16.13;66.24
30021;BME280;16861;52.294;7.760;2023-10-08T05:59:38;100699.53;;;16.14;66.16
30021;BME280;16861;52.294;7.760;2023-10-08T06:02:20;100687.22;;;16.13;66.06
30021;BME280;16861;52.294;7.760;2023-10-08T06:05:16;100677.47;;;16.13;65.81
30021;BME280;16861;52.294;7.760;2023-10-08T06:07:54;100681.16;;;16.11;66.11
30021;BME280;16861;52.294;7.760;2023-10-08T06:10:24;100681.25;;;16.09;66.00
30021;BME280;16861;52.294;7.760;2023-10-08T06:13:04;100690.28;;;16.07;66.70
30021;BME280;16861;52.294;7.760;2023-10-08T06:15:46;100700.13;;;16.05;66.75
30021;BME280;16861;52.294;7.760;2023-10-08T06:18:33;100718.44;;;16.09;66.18
30021;BME280;16861;52.294;7.760;2023-10-08T06:21:05;100722.16;;;16.07;66.61
30021;BME280;16861;52.294;7.760;2023-10-08T06:23:38;100721.94;;;16.10;66.31
30021;BME280;16861;52.294;7.760;2023-10-08T06:26:05;100711.22;;;16.11;66.20
30021;BME280;16861;52.294;7.760;2023-10-08T06:28:42;100721.94;;;16.10;66.25
30021;BME280;16861;52.294;7.760;2023-10-08T06:31:09;100729.81;;;16.11;66.12
30021;BME280;16861;52.294;7.760;2023-10-08T06:33:44;100741.28;;;16.12;66.10
30021;BME280;16861;52.294;7.760;2023-10-08T06:36:11;100745.66;;;16.13;66.13
30021;BME280;16861;52.294;7.760;2023-10-08T06:38:40;100746.59;;;16.12;66.07
30021;BME280;16861;52.294;7.760;2023-10-08T06:41:09;100753.63;;;16.13;66.11
30021;BME280;16861;52.294;7.760;2023-10-08T06:43:56;100757.97;;;16.14;66.09
30021;BME280;16861;52.294;7.760;2023-10-08T06:46:29;100761.59;;;16.13;66.60
30021;BME280;16861;52.294;7.760;2023-10-08T06:48:59;100772.56;;;16.21;65.93
30021;BME280;16861;52.294;7.760;2023-10-08T06:51:30;100780.53;;;16.21;66.15
30021;BME280;16861;52.294;7.760;2023-10-08T06:53:59;100768.13;;;16.22;66.30
30021;BME280;16861;52.294;7.760;2023-10-08T06:56:28;100774.16;;;16.24;66.33
30021;BME280;16861;52.294;7.760;2023-10-08T06:58:57;100773.13;;;16.26;66.43
30021;BME280;16861;52.294;7.760;2023-10-08T07:01:25;100765.91;;;16.28;66.36
30021;BME280;16861;52.294;7.760;2023-10-08T07:03:53;100757.72;;;16.32;66.40
30021;BME280;16861;52.294;7.760;2023-10-08T07:06:30;100760.00;;;16.38;66.58
30021;BME280;16861;52.294;7.760;2023-10-08T07:09:01;100774.03;;;16.40;66.27
30021;BME280;16861;52.294;7.760;2023-10-08T07:11:33;100777.22;;;16.45;66.23
30021;BME280;16861;52.294;7.760;2023-10-08T07:14:08;100765.56;;;16.48;66.24
30021;BME280;16861;52.294;7.760;2023-10-08T07:16:37;100761.63;;;16.53;66.19
30021;BME280;16861;52.294;7.760;2023-10-08T07:19:04;100754.41;;;16.56;66.31
30021;BME280;16861;52.294;7.760;2023-10-08T07:21:32;100774.53;;;16.60;66.36
30021;BME280;16861;52.294;7.760;2023-10-08T07:24:15;100803.56;;;16.63;66.30
30021;BME280;16861;52.294;7.760;2023-10-08T07:26:44;100806.09;;;16.64;65.99
30021;BME280;16861;52.294;7.760;2023-10-08T07:29:17;100803.25;;;16.67;65.89
30021;BME280;16861;52.294;7.760;2023-10-08T07:31:45;100796.16;;;16.68;66.10
30021;BME280;16861;52.294;7.760;2023-10-08T07:34:21;100798.69;;;16.70;65.99
30021;BME280;16861;52.294;7.760;2023-10-08T07:36:52;100802.97;;;16.72;66.18
30021;BME280;16861;52.294;7.760;2023-10-08T07:39:21;100806.34;;;16.74;66.00
30021;BME280;16861;52.294;7.760;2023-10-08T07:41:59;100817.75;;;16.76;66.07
30021;BME280;16861;52.294;7.760;2023-10-08T07:44:26;100826.47;;;16.78;66.00
30021;BME280;16861;52.294;7.760;2023-10-08T07:46:59;100825.50;;;16.79;66.02
30021;BME280;16861;52.294;7.760;2023-10-08T07:49:26;100816.91;;;16.89;65.50
30021;BME280;16861;52.294;7.760;2023-10-08T07:51:57;100804.59;;;16.88;65.47
30021;BME280;16861;52.294;7.760;2023-10-08T07:54:26;100785.88;;;16.89;65.59
30021;BME280;16861;52.294;7.760;2023-10-08T07:56:56;100771.50;;;16.92;65.27
30021;BME280;16861;52.294;7.760;2023-10-08T07:59:39;100753.75;;;16.92;65.56
30021;BME280;16861;52.294;7.760;2023-10-08T08:02:21;100766.72;;;16.97;64.81
30021;BME280;16861;52.294;7.760;2023-10-08T08:04:53;100778.44;;;16.94;64.76
30021;BME280;16861;52.294;7.760;2023-10-08T08:07:20;100783.97;;;16.91;65.30
30021;BME280;16861;52.294;7.760;2023-10-08T08:09:49;100811.59;;;16.89;65.63
30021;BME280;16861;52.294;7.760;2023-10-08T08:12:25;100825.66;;;16.91;65.52
30021;BME280;16861;52.294;7.760;2023-10-08T08:14:54;100834.38;;;16.93;65.67
30021;BME280;16861;52.294;7.760;2023-10-08T08:17:21;100859.81;;;16.97;65.69
30021;BME280;16861;52.294;7.760;2023-10-08T08:19:51;100867.59;;;17.00;65.56
30021;BME280;16861;52.294;7.760;2023-10-08T08:22:19;100870.88;;;17.04;65.14
30021;BME280;16861;52.294;7.760;2023-10-08T08:24:51;100858.19;;;17.09;65.10
30021;BME280;16861;52.294;7.760;2023-10-08T08:27:47;100854.25;;;17.15;64.99
30021;BME280;16861;52.294;7.760;2023-10-08T08:30:15;100870.78;;;17.20;65.51
30021;BME280;16861;52.294;7.760;2023-10-08T08:32:44;100858.09;;;17.24;65.42
30021;BME280;16861;52.294;7.760;2023-10-08T08:35:18;100843.44;;;17.31;65.40
30021;BME280;16861;52.294;7.760;2023-10-08T08:37:46;100846.63;;;17.36;64.83
30021;BME280;16861;52.294;7.760;2023-10-08T08:40:18;100848.97;;;17.41;64.81
30021;BME280;16861;52.294;7.760;2023-10-08T08:42:49;100849.53;;;17.46;64.38
30021;BME280;16861;52.294;7.760;2023-10-08T08:45:21;100871.75;;;17.45;63.65
30021;BME280;16861;52.294;7.760;2023-10-08T08:47:48;100868.03;;;17.48;63.65
30021;BME280;16861;52.294;7.760;2023-10-08T08:50:15;100870.69;;;17.48;63.92
30021;BME280;16861;52.294;7.760;2023-10-08T08:52:44;100849.28;;;17.49;63.94
30021;BME280;16861;52.294;7.760;2023-10-08T08:55:12;100879.22;;;17.53;64.80
30021;BME280;16861;52.294;7.760;2023-10-08T08:57:49;100875.41;;;17.57;64.25
30021;BME280;16861;52.294;7.760;2023-10-08T09:00:17;100868.69;;;17.64;64.43
30021;BME280;16861;52.294;7.760;2023-10-08T09:02:46;100839.81;;;17.71;64.35
30021;BME280;16861;52.294;7.760;2023-10-08T09:05:15;100839.28;;;17.79;64.30
30021;BME280;16861;52.294;7.760;2023-10-08T09:07:57;100796.34;;;17.83;63.60
30021;BME280;16861;52.294;7.760;2023-10-08T09:10:26;100789.63;;;17.91;63.17
30021;BME280;16861;52.294;7.760;2023-10-08T09:12:57;100828.28;;;17.96;63.11
30021;BME280;16861;52.294;7.760;2023-10-08T09:15:27;100877.72;;;18.01;63.18
30021;BME280;16861;52.294;7.760;2023-10-08T09:17:57;100891.69;;;18.04;62.55
30021;BME280;16861;52.294;7.760;2023-10-08T09:20:27;100888.59;;;18.10;63.15
30021;BME280;16861;52.294;7.760;2023-10-08T09:23:07;100889.47;;;18.11;62.56
30021;BME280;16861;52.294;7.760;2023-10-08T09:25:34;100907.34;;;18.22;62.71
30021;BME280;16861;52.294;7.760;2023-10-08T09:28:02;100909.69;;;18.27;62.69
30021;BME280;16861;52.294;7.760;2023-10-08T09:30:29;100906.69;;;18.31;63.05
30021;BME280;16861;52.294;7.760;2023-10-08T09:32:56;100914.28;;;18.38;62.64
30021;BME280;16861;52.294;7.760;2023-10-08T09:35:24;100922.53;;;18.46;62.43
30021;BME280;16861;52.294;7.760;2023-10-08T09:37:54;100936.28;;;18.53;62.26
30021;BME280;16861;52.294;7.760;2023-10-08T09:40:21;100945.66;;;18.58;62.13
30021;BME280;16861;52.294;7.760;2023-10-08T09:42:48;100952.47;;;18.62;61.62
30021;BME280;16861;52.294;7.760;2023-10-08T09:45:15;100937.22;;;18.65;60.67
30021;BME280;16861;52.294;7.760;2023-10-08T09:47:48;100933.59;;;18.66;60.26
30021;BME280;16861;52.294;7.760;2023-10-08T09:50:16;100915.66;;;18.68;60.82
30021;BME280;16861;52.294;7.760;2023-10-08T09:53:01;100921.34;;;18.63;60.18
30021;BME280;16861;52.294;7.760;2023-10-08T09:55:35;100923.34;;;18.72;61.12
30021;BME280;16861;52.294;7.760;2023-10-08T09:58:02;100921.28;;;18.76;60.78
30021;BME280;16861;52.294;7.760;2023-10-08T10:00:30;100920.84;;;18.82;60.44
30021;BME280;16861;52.294;7.760;2023-10-08T10:02:59;100913.34;;;18.87;60.75
30021;BME280;16861;52.294;7.760;2023-10-08T10:05:30;100912.88;;;18.94;59.79
30021;BME280;16861;52.294;7.760;2023-10-08T10:07:58;100902.75;;;18.99;59.93
30021;BME280;16861;52.294;7.760;2023-10-08T10:10:26;100896.06;;;19.05;59.68
30021;BME280;16861;52.294;7.760;2023-10-08T10:12:53;100888.28;;;19.14;60.01
30021;BME280;16861;52.294;7.760;2023-10-08T10:15:23;100872.41;;;19.24;59.79
30021;BME280;16861;52.294;7.760;2023-10-08T10:18:08;100868.31;;;19.32;58.33
30021;BME280;16861;52.294;7.760;2023-10-08T10:20:44;100868.31;;;19.43;57.65
30021;BME280;16861;52.294;7.760;2023-10-08T10:23:35;100864.00;;;19.53;57.80
30021;BME280;16861;52.294;7.760;2023-10-08T10:26:29;100873.84;;;19.64;56.68
30021;BME280;16861;52.294;7.760;2023-10-08T10:31:47;100890.97;;;19.85;57.03
30021;BME280;16861;52.294;7.760;2023-10-08T10:34:15;100892.81;;;19.96;57.95
30021;BME280;16861;52.294;7.760;2023-10-08T10:36:45;100885.06;;;20.04;56.74
30021;BME280;16861;52.294;7.760;2023-10-08T10:39:17;100883.34;;;20.14;56.02
30021;BME280;16861;52.294;7.760;2023-10-08T10:41:57;100891.63;;;20.23;55.10
30021;BME280;16861;52.294;7.760;2023-10-08T10:44:28;100891.97;;;20.29;56.17
30021;BME280;16861;52.294;7.760;2023-10-08T10:46:59;100889.88;;;20.33;56.34
30021;BME280;16861;52.294;7.760;2023-10-08T10:49:42;100886.84;;;20.38;57.28
30021;BME280;16861;52.294;7.760;2023-10-08T10:52:22;100871.50;;;20.51;55.51
30021;BME280;16861;52.294;7.760;2023-10-08T10:55:03;100869.06;;;20.60;56.18
30021;BME280;16861;52.294;7.760;2023-10-08T10:57:50;100868.31;;;20.69;55.95
30021;BME280;16861;52.294;7.760;2023-10-08T11:00:35;100873.75;;;20.79;55.67
30021;BME280;16861;52.294;7.760;2023-10-08T11:03:03;100879.22;;;20.89;55.10
30021;BME280;16861;52.294;7.760;2023-10-08T11:05:39;100887.19;;;21.00;53.77
30021;BME280;16861;52.294;7.760;2023-10-08T11:08:06;100899.44;;;21.14;54.20
30021;BME280;16861;52.294;7.760;2023-10-08T11:10:39;100895.00;;;21.25;52.56
30021;BME280;16861;52.294;7.760;2023-10-08T11:13:06;100892.84;;;21.40;53.93
30021;BME280;16861;52.294;7.760;2023-10-08T11:15:46;100896.31;;;21.52;52.57
30021;BME280;16861;52.294;7.760;2023-10-08T11:18:18;100902.31;;;21.65;52.25
30021;BME280;16861;52.294;7.760;2023-10-08T11:20:46;100907.63;;;21.77;52.00
30021;BME280;16861;52.294;7.760;2023-10-08T11:26:02;100873.75;;;22.07;52.67
30021;BME280;16861;52.294;7.760;2023-10-08T11:28:39;100876.50;;;22.26;51.33
30021;BME280;16861;52.294;7.760;2023-10-08T11:31:14;100875.56;;;22.47;50.32
30021;BME280;16861;52.294;7.760;2023-10-08T11:33:43;100876.34;;;22.59;50.84
30021;BME280;16861;52.294;7.760;2023-10-08T11:36:23;100873.34;;;22.62;50.30
30021;BME280;16861;52.294;7.760;2023-10-08T11:39:05;100882.41;;;22.61;49.51
30021;BME280;16861;52.294;7.760;2023-10-08T11:41:35;100874.91;;;22.55;49.40
30021;BME280;16861;52.294;7.760;2023-10-08T11:44:16;100879.22;;;22.46;49.57
30021;BME280;16861;52.294;7.760;2023-10-08T11:46:46;100874.69;;;22.37;49.66
30021;BME280;16861;52.294;7.760;2023-10-08T11:49:18;100860.84;;;22.32;49.84
30021;BME280;16861;52.294;7.760;2023-10-08T11:51:46;100861.84;;;22.31;49.24
30021;BME280;16861;52.294;7.760;2023-10-08T11:54:13;100851.13;;;22.31;49.15
30021;BME280;16861;52.294;7.760;2023-10-08T11:56:41;100847.56;;;22.30;48.84
30021;BME280;16861;52.294;7.760;2023-10-08T11:59:08;100848.84;;;22.26;48.77
30021;BME280;16861;52.294;7.760;2023-10-08T12:01:35;100832.19;;;22.22;48.84
30021;BME280;16861;52.294;7.760;2023-10-08T12:04:04;100835.00;;;22.21;48.71
30021;BME280;16861;52.294;7.760;2023-10-08T12:06:31;100829.38;;;22.24;48.87
30021;BME280;16861;52.294;7.760;2023-10-08T12:08:59;100825.13;;;22.31;49.41
30021;BME280;16861;52.294;7.760;2023-10-08T12:11:26;100811.47;;;22.44;49.51
30021;BME280;16861;52.294;7.760;2023-10-08T12:13:58;100801.06;;;22.61;48.92
30021;BME280;16861;52.294;7.760;2023-10-08T12:16:27;100805.00;;;22.76;48.86
30021;BME280;16861;52.294;7.760;2023-10-08T12:19:02;100798.91;;;22.94;49.92
30021;BME280;16861;52.294;7.760;2023-10-08T12:21:42;100787.97;;;23.25;49.70
30021;BME280;16861;52.294;7.760;2023-10-08T12:24:09;100793.53;;;23.62;50.00
30021;BME280;16861;52.294;7.760;2023-10-08T12:26:39;100796.88;;;24.02;49.25
30021;BME280;16861;52.294;7.760;2023-10-08T12:29:13;100804.56;;;24.43;48.06
30021;BME280;16861;52.294;7.760;2023-10-08T12:31:46;100799.41;;;24.68;46.89
30021;BME280;16861;52.294;7.760;2023-10-08T12:34:14;100804.22;;;24.82;46.31
30021;BME280;16861;52.294;7.760;2023-10-08T12:36:41;100802.41;;;24.83;45.61
30021;BME280;16861;52.294;7.760;2023-10-08T12:39:09;100799.78;;;24.73;45.30
30021;BME280;16861;52.294;7.760;2023-10-08T12:41:38;100801.34;;;24.57;45.53
30021;BME280;16861;52.294;7.760;2023-10-08T12:44:05;100794.28;;;24.38;45.13
30021;BME280;16861;52.294;7.760;2023-10-08T12:46:34;100785.31;;;24.19;45.88
30021;BME280;16861;52.294;7.760;2023-10-08T12:49:00;100790.50;;;24.03;45.98
30021;BME280;16861;52.294;7.760;2023-10-08T12:51:29;100783.50;;;23.92;46.38
30021;BME280;16861;52.294;7.760;2023-10-08T12:54:00;100786.22;;;23.82;46.37
30021;BME280;16861;52.294;7.760;2023-10-08T12:56:47;100784.44;;;23.73;46.77
30021;BME280;16861;52.294;7.760;2023-10-08T12:59:21;100782.47;;;23.65;46.71
30021;BME280;16861;52.294;7.760;2023-10-08T13:01:50;100786.63;;;23.59;47.39
30021;BME280;16861;52.294;7.760;2023-10-08T13:04:23;100789.59;;;23.56;46.81
30021;BME280;16861;52.294;7.760;2023-10-08T13:06:55;100794.41;;;23.52;46.85
30021;BME280;16861;52.294;7.760;2023-10-08T13:09:31;100802.78;;;23.49;46.65
30021;BME280;16861;52.294;7.760;2023-10-08T13:11:58;100802.38;;;23.44;46.64
30021;BME280;16861;52.294;7.760;2023-10-08T13:14:26;100798.72;;;23.35;46.35
30021;BME280;16861;52.294;7.760;2023-10-08T13:16:53;100807.75;;;23.24;46.44
30021;BME280;16861;52.294;7.760;2023-10-08T13:19:20;100805.53;;;23.10;46.47
30021;BME280;16861;52.294;7.760;2023-10-08T13:21:49;100800.91;;;22.92;46.43
30021;BME280;16861;52.294;7.760;2023-10-08T13:24:19;100794.97;;;22.78;47.19